createdAt,value
2018-07-08T00:00:58.205Z,64.56
2018-07-08T00:01:58.209Z,64.56
2018-07-08T00:02:58.247Z,64.56
2018-07-08T00:03:58.260Z,64.56
2018-07-08T00:04:58.274Z,64.47
2018-07-08T00:05:58.304Z,64.65
2018-07-08T00:06:58.333Z,64.50
2018-07-08T00:07:58.356Z,64.56
2018-07-08T00:08:58.363Z,64.37
2018-07-08T00:09:58.392Z,64.47
2018-07-08T00:10:58.406Z,64.47
2018-07-08T00:11:58.435Z,64.37
2018-07-08T00:12:58.460Z,64.56
2018-07-08T00:13:58.478Z,64.47
2018-07-08T00:14:58.500Z,64.47
2018-07-08T00:15:58.524Z,64.17
2018-07-08T00:16:58.550Z,64.65
2018-07-08T00:17:58.595Z,64.17
2018-07-08T00:18:58.585Z,64.65
2018-07-08T00:19:58.609Z,64.17
2018-07-08T00:20:58.637Z,64.37
2018-07-08T00:21:58.653Z,64.27
2018-07-08T00:22:58.667Z,64.30
2018-07-08T00:23:58.684Z,64.07
2018-07-08T00:24:58.710Z,64.37
2018-07-08T00:25:58.733Z,64.17
2018-07-08T00:26:58.749Z,64.07
2018-07-08T00:27:58.787Z,64.17
2018-07-08T00:28:58.811Z,64.56
2018-07-08T00:29:58.838Z,64.17
2018-07-08T00:30:58.850Z,64.65
2018-07-08T00:31:58.879Z,64.56
2018-07-08T00:32:58.891Z,64.07
2018-07-08T00:33:58.908Z,64.65
2018-07-08T00:34:58.928Z,64.65
2018-07-08T00:35:58.943Z,64.56
2018-07-08T00:36:58.968Z,64.17
2018-07-08T00:37:58.995Z,64.88
2018-07-08T00:38:59.017Z,63.88
2018-07-08T00:39:59.037Z,64.56
2018-07-08T00:40:59.057Z,64.65
2018-07-08T00:41:59.077Z,64.75
2018-07-08T00:42:59.134Z,64.75
2018-07-08T00:43:59.111Z,64.88
2018-07-08T00:44:59.150Z,64.07
2018-07-08T00:45:59.167Z,64.85
2018-07-08T00:46:59.194Z,64.65
2018-07-08T00:47:59.200Z,64.47
2018-07-08T00:48:59.228Z,64.11
2018-07-08T00:49:59.269Z,64.27
2018-07-08T00:50:59.289Z,64.47
2018-07-08T00:51:59.309Z,64.30
2018-07-08T00:52:59.321Z,64.85
2018-07-08T00:53:59.342Z,64.47
2018-07-08T00:54:59.373Z,64.65
2018-07-08T00:55:59.386Z,64.37
2018-07-08T00:56:59.405Z,64.37
2018-07-08T00:57:59.428Z,64.95
2018-07-08T00:58:59.450Z,64.95
2018-07-08T00:59:59.500Z,64.40
2018-07-08T01:00:59.495Z,64.50
2018-07-08T01:01:59.511Z,64.30
2018-07-08T01:02:59.530Z,64.59
2018-07-08T01:03:59.553Z,64.56
2018-07-08T01:04:59.578Z,64.40
2018-07-08T01:05:59.610Z,64.69
2018-07-08T01:06:59.632Z,64.88
2018-07-08T01:07:59.637Z,64.17
2018-07-08T01:08:59.668Z,64.78
2018-07-08T01:09:59.682Z,64.11
2018-07-08T01:10:59.698Z,64.56
2018-07-08T01:11:59.732Z,63.88
2018-07-08T01:12:59.751Z,64.75
2018-07-08T01:13:59.757Z,64.88
2018-07-08T01:14:59.789Z,64.20
2018-07-08T01:15:59.812Z,63.82
2018-07-08T01:16:59.831Z,64.27
2018-07-08T01:17:59.858Z,63.98
2018-07-08T01:18:59.879Z,64.59
2018-07-08T01:19:59.906Z,64.85
2018-07-08T01:20:59.970Z,64.88
2018-07-08T01:21:59.930Z,64.27
2018-07-08T01:22:59.968Z,64.37
2018-07-08T01:23:59.995Z,63.98
2018-07-08T01:25:00.053Z,64.88
2018-07-08T01:26:00.037Z,64.69
2018-07-08T01:27:00.056Z,64.88
2018-07-08T01:28:00.077Z,64.01
2018-07-08T01:29:00.107Z,64.20
2018-07-08T01:30:00.127Z,64.01
2018-07-08T01:31:00.145Z,64.17
2018-07-08T01:32:00.157Z,64.27
2018-07-08T01:33:00.193Z,64.75
2018-07-08T01:34:00.426Z,64.01
2018-07-08T01:35:00.229Z,64.01
2018-07-08T01:36:00.238Z,64.88
2018-07-08T01:37:00.275Z,64.37
2018-07-08T01:38:00.277Z,64.07
2018-07-08T01:39:00.310Z,64.20
2018-07-08T01:40:00.333Z,64.30
2018-07-08T01:41:00.361Z,64.59
2018-07-08T01:42:00.383Z,64.88
2018-07-08T01:43:00.392Z,64.95
2018-07-08T01:44:00.449Z,64.78
2018-07-08T01:45:00.445Z,64.69
2018-07-08T01:46:00.460Z,65.17
2018-07-08T01:47:00.488Z,64.69
2018-07-08T01:48:00.511Z,64.69
2018-07-08T01:49:00.511Z,65.08
2018-07-08T01:50:00.540Z,65.17
2018-07-08T01:51:00.561Z,64.95
2018-07-08T01:52:00.578Z,65.08
2018-07-08T01:53:00.611Z,65.08
2018-07-08T01:54:00.638Z,65.08
2018-07-08T01:55:00.653Z,64.88
2018-07-08T01:56:00.670Z,64.78
2018-07-08T01:57:00.689Z,64.75
2018-07-08T01:58:00.723Z,65.27
2018-07-08T01:59:00.738Z,65.17
2018-07-08T02:00:00.753Z,65.37
2018-07-08T02:01:00.783Z,65.24
2018-07-08T02:02:00.823Z,65.27
2018-07-08T02:03:00.830Z,65.56
2018-07-08T02:04:00.843Z,65.56
2018-07-08T02:05:00.872Z,65.56
2018-07-08T02:06:00.882Z,65.75
2018-07-08T02:07:00.915Z,65.85
2018-07-08T02:08:00.933Z,65.85
2018-07-08T02:09:00.953Z,65.75
2018-07-08T02:10:00.981Z,65.75
2018-07-08T02:11:00.998Z,65.85
2018-07-08T02:12:01.022Z,65.66
2018-07-08T02:13:01.045Z,65.85
2018-07-08T02:14:01.067Z,65.47
2018-07-08T02:15:01.082Z,65.47
2018-07-08T02:16:01.102Z,65.85
2018-07-08T02:17:01.134Z,65.66
2018-07-08T02:18:01.148Z,65.66
2018-07-08T02:19:01.167Z,65.66
2018-07-08T02:20:01.221Z,65.66
2018-07-08T02:21:01.206Z,65.66
2018-07-08T02:22:01.231Z,65.47
2018-07-08T02:23:01.248Z,65.43
2018-07-08T02:24:01.275Z,65.37
2018-07-08T02:25:01.303Z,65.66
2018-07-08T02:26:01.317Z,65.47
2018-07-08T02:27:01.344Z,65.85
2018-07-08T02:28:01.368Z,65.66
2018-07-08T02:29:01.393Z,65.82
2018-07-08T02:30:01.403Z,65.85
2018-07-08T02:31:01.421Z,65.37
2018-07-08T02:32:01.453Z,65.66
2018-07-08T02:33:01.483Z,65.37
2018-07-08T02:34:01.506Z,65.47
2018-07-08T02:35:01.518Z,65.66
2018-07-08T02:36:01.548Z,65.75
2018-07-08T02:37:01.559Z,65.63
2018-07-08T02:38:01.585Z,65.63
2018-07-08T02:39:01.601Z,65.66
2018-07-08T02:40:01.619Z,65.66
2018-07-08T02:41:01.639Z,65.82
2018-07-08T02:42:01.666Z,65.63
2018-07-08T02:43:01.697Z,65.75
2018-07-08T02:44:01.706Z,65.63
2018-07-08T02:45:01.725Z,65.37
2018-07-08T02:46:01.763Z,65.27
2018-07-08T02:47:01.772Z,65.37
2018-07-08T02:48:01.801Z,65.17
2018-07-08T02:49:01.808Z,65.34
2018-07-08T02:50:01.849Z,65.27
2018-07-08T02:51:01.875Z,65.17
2018-07-08T02:52:01.876Z,65.24
2018-07-08T02:53:01.924Z,65.43
2018-07-08T02:54:01.927Z,65.47
2018-07-08T02:55:01.945Z,65.56
2018-07-08T02:56:01.982Z,65.27
2018-07-08T02:57:02.001Z,65.37
2018-07-08T02:58:02.008Z,65.66
2018-07-08T02:59:02.030Z,65.37
2018-07-08T03:00:02.055Z,65.37
2018-07-08T03:01:02.070Z,65.75
2018-07-08T03:02:02.092Z,65.75
2018-07-08T03:03:02.117Z,65.72
2018-07-08T03:04:02.141Z,65.53
2018-07-08T03:05:02.157Z,65.56
2018-07-08T03:06:02.177Z,65.56
2018-07-08T03:07:02.206Z,65.43
2018-07-08T03:08:02.222Z,65.75
2018-07-08T03:09:02.249Z,65.34
2018-07-08T03:10:02.264Z,65.75
2018-07-08T03:11:02.290Z,65.05
2018-07-08T03:12:02.318Z,65.72
2018-07-08T03:13:02.336Z,65.85
2018-07-08T03:14:02.359Z,65.66
2018-07-08T03:15:02.380Z,65.72
2018-07-08T03:16:02.391Z,65.43
2018-07-08T03:17:02.418Z,65.85
2018-07-08T03:18:02.448Z,65.72
2018-07-08T03:19:02.459Z,65.72
2018-07-08T03:20:02.487Z,65.43
2018-07-08T03:21:02.512Z,65.63
2018-07-08T03:22:02.522Z,65.56
2018-07-08T03:23:02.548Z,65.53
2018-07-08T03:24:02.560Z,65.63
2018-07-08T03:25:02.590Z,65.82
2018-07-08T03:26:02.608Z,65.72
2018-07-08T03:27:02.635Z,65.66
2018-07-08T03:28:02.660Z,65.63
2018-07-08T03:29:02.674Z,65.34
2018-07-08T03:30:02.697Z,65.34
2018-07-08T03:31:02.711Z,65.47
2018-07-08T03:32:02.740Z,65.72
2018-07-08T03:33:02.754Z,65.14
2018-07-08T03:34:02.793Z,65.34
2018-07-08T03:35:02.803Z,65.37
2018-07-08T03:36:02.832Z,65.27
2018-07-08T03:37:02.839Z,65.66
2018-07-08T03:38:02.865Z,65.63
2018-07-08T03:39:02.885Z,65.66
2018-07-08T03:40:02.935Z,65.66
2018-07-08T03:41:02.945Z,65.85
2018-07-08T03:42:02.957Z,65.53
2018-07-08T03:43:02.975Z,65.66
2018-07-08T03:44:02.993Z,65.72
2018-07-08T03:45:03.026Z,65.85
2018-07-08T03:46:03.044Z,65.85
2018-07-08T03:47:03.062Z,65.66
2018-07-08T03:48:03.098Z,65.63
2018-07-08T03:49:03.112Z,65.63
2018-07-08T03:50:03.139Z,65.63
2018-07-08T03:51:03.143Z,65.47
2018-07-08T03:52:03.177Z,65.37
2018-07-08T03:53:03.190Z,65.66
2018-07-08T03:54:03.209Z,65.63
2018-07-08T03:55:03.242Z,65.37
2018-07-08T03:56:03.251Z,65.43
2018-07-08T03:57:03.280Z,65.34
2018-07-08T03:58:03.300Z,65.37
2018-07-08T03:59:03.326Z,65.43
2018-07-08T04:00:03.354Z,65.66
2018-07-08T04:01:03.409Z,65.56
2018-07-08T04:02:03.381Z,65.24
2018-07-08T04:03:03.411Z,65.63
2018-07-08T04:04:03.433Z,65.24
2018-07-08T04:05:03.452Z,65.27
2018-07-08T04:06:03.502Z,65.24
2018-07-08T04:07:03.502Z,65.85
2018-07-08T04:08:03.521Z,65.63
2018-07-08T04:09:03.632Z,65.63
2018-07-08T04:10:03.561Z,65.66
2018-07-08T04:11:03.590Z,65.53
2018-07-08T04:12:03.600Z,65.47
2018-07-08T04:13:03.621Z,65.56
2018-07-08T04:14:03.649Z,65.43
2018-07-08T04:15:03.667Z,65.72
2018-07-08T04:16:03.728Z,65.75
2018-07-08T04:17:03.712Z,65.53
2018-07-08T04:18:03.739Z,65.43
2018-07-08T04:19:03.752Z,65.47
2018-07-08T04:20:03.779Z,65.43
2018-07-08T04:21:03.802Z,65.43
2018-07-08T04:22:03.826Z,65.63
2018-07-08T04:23:03.840Z,65.43
2018-07-08T04:24:03.863Z,65.72
2018-07-08T04:25:03.890Z,65.63
2018-07-08T04:26:03.900Z,65.53
2018-07-08T04:27:03.927Z,65.72
2018-07-08T04:28:03.952Z,65.24
2018-07-08T04:29:04.074Z,65.72
2018-07-08T04:30:03.997Z,65.53
2018-07-08T04:31:04.019Z,65.53
2018-07-08T04:32:04.036Z,65.63
2018-07-08T04:33:04.056Z,65.43
2018-07-08T04:34:04.085Z,65.43
2018-07-08T04:35:04.099Z,65.34
2018-07-08T04:36:04.132Z,65.34
2018-07-08T04:37:04.138Z,65.66
2018-07-08T04:38:04.164Z,65.24
2018-07-08T04:39:04.183Z,65.63
2018-07-08T04:40:04.244Z,65.63
2018-07-08T04:41:04.226Z,65.63
2018-07-08T04:42:04.262Z,65.53
2018-07-08T04:43:04.265Z,65.72
2018-07-08T04:44:04.297Z,65.53
2018-07-08T04:45:04.316Z,65.53
2018-07-08T04:46:04.335Z,65.43
2018-07-08T04:47:04.353Z,65.72
2018-07-08T04:48:04.380Z,65.34
2018-07-08T04:49:04.398Z,65.72
2018-07-08T04:50:04.426Z,65.34
2018-07-08T04:51:04.438Z,65.72
2018-07-08T04:52:04.457Z,65.43
2018-07-08T04:53:04.476Z,65.43
2018-07-08T04:54:04.509Z,65.43
2018-07-08T04:55:04.555Z,65.72
2018-07-08T04:56:04.553Z,65.72
2018-07-08T04:57:04.578Z,65.63
2018-07-08T04:58:04.587Z,65.63
2018-07-08T04:59:04.615Z,65.72
2018-07-08T05:00:04.635Z,65.53
2018-07-08T05:01:04.699Z,65.63
2018-07-08T05:02:04.677Z,65.53
2018-07-08T05:03:04.720Z,65.53
2018-07-08T05:04:04.727Z,65.53
2018-07-08T05:05:04.743Z,65.43
2018-07-08T05:06:04.762Z,65.63
2018-07-08T05:07:04.782Z,65.63
2018-07-08T05:08:04.820Z,65.63
2018-07-08T05:09:04.828Z,65.82
2018-07-08T05:10:04.845Z,65.82
2018-07-08T05:11:04.870Z,65.63
2018-07-08T05:12:04.893Z,65.34
2018-07-08T05:13:04.914Z,65.72
2018-07-08T05:14:04.937Z,65.34
2018-07-08T05:15:04.960Z,65.34
2018-07-08T05:16:04.974Z,65.43
2018-07-08T05:17:05.015Z,65.43
2018-07-08T05:18:05.018Z,65.53
2018-07-08T05:19:05.039Z,65.53
2018-07-08T05:20:05.055Z,65.53
2018-07-08T05:21:05.078Z,65.92
2018-07-08T05:22:05.107Z,65.72
2018-07-08T05:23:05.131Z,65.72
2018-07-08T05:24:05.165Z,65.82
2018-07-08T05:25:05.179Z,65.72
2018-07-08T05:26:05.193Z,65.63
2018-07-08T05:27:05.204Z,65.66
2018-07-08T05:28:05.223Z,65.53
2018-07-08T05:29:05.256Z,65.56
2018-07-08T05:30:05.285Z,65.24
2018-07-08T05:31:05.303Z,65.72
2018-07-08T05:32:05.314Z,65.75
2018-07-08T05:33:05.350Z,65.53
2018-07-08T05:34:05.362Z,65.66
2018-07-08T05:35:05.381Z,65.53
2018-07-08T05:36:05.416Z,65.63
2018-07-08T05:37:05.420Z,65.72
2018-07-08T05:38:05.440Z,65.72
2018-07-08T05:39:05.467Z,65.82
2018-07-08T05:40:05.489Z,65.72
2018-07-08T05:41:05.513Z,65.63
2018-07-08T05:42:05.545Z,65.95
2018-07-08T05:43:05.554Z,65.72
2018-07-08T05:44:05.572Z,65.82
2018-07-08T05:45:05.603Z,65.82
2018-07-08T05:46:05.618Z,65.85
2018-07-08T05:47:05.635Z,65.66
2018-07-08T05:48:05.664Z,65.56
2018-07-08T05:49:05.674Z,65.75
2018-07-08T05:50:05.714Z,65.63
2018-07-08T05:51:05.723Z,65.24
2018-07-08T05:52:05.739Z,65.56
2018-07-08T05:53:05.765Z,65.47
2018-07-08T05:54:05.806Z,65.27
2018-07-08T05:55:05.805Z,65.27
2018-07-08T05:56:05.831Z,65.53
2018-07-08T05:57:05.859Z,65.27
2018-07-08T05:58:05.878Z,65.47
2018-07-08T05:59:05.921Z,65.34
2018-07-08T06:00:05.914Z,65.17
2018-07-08T06:01:05.965Z,65.47
2018-07-08T06:02:05.963Z,65.63
2018-07-08T06:03:05.989Z,65.47
2018-07-08T06:04:06.013Z,65.47
2018-07-08T06:05:06.029Z,65.17
2018-07-08T06:06:06.061Z,65.75
2018-07-08T06:07:06.066Z,65.75
2018-07-08T06:08:06.082Z,65.66
2018-07-08T06:09:06.112Z,65.85
2018-07-08T06:10:06.139Z,65.63
2018-07-08T06:11:06.187Z,65.24
2018-07-08T06:12:06.177Z,65.75
2018-07-08T06:13:06.206Z,65.34
2018-07-08T06:14:06.227Z,65.56
2018-07-08T06:15:06.234Z,65.24
2018-07-08T06:16:06.263Z,65.66
2018-07-08T06:17:06.288Z,65.24
2018-07-08T06:18:06.312Z,65.56
2018-07-08T06:19:06.326Z,65.27
2018-07-08T06:20:06.360Z,65.47
2018-07-08T06:21:06.370Z,65.24
2018-07-08T06:22:06.404Z,65.66
2018-07-08T06:23:06.409Z,65.47
2018-07-08T06:24:06.424Z,65.53
2018-07-08T06:25:06.483Z,65.47
2018-07-08T06:26:06.482Z,65.34
2018-07-08T06:27:06.491Z,65.47
2018-07-08T06:28:06.533Z,65.56
2018-07-08T06:29:06.547Z,65.66
2018-07-08T06:30:06.558Z,65.24
2018-07-08T06:31:06.581Z,65.27
2018-07-08T06:32:06.616Z,65.24
2018-07-08T06:33:06.626Z,65.56
2018-07-08T06:34:06.653Z,65.27
2018-07-08T06:35:06.661Z,65.34
2018-07-08T06:36:06.704Z,65.53
2018-07-08T06:37:06.715Z,65.53
2018-07-08T06:38:06.724Z,65.75
2018-07-08T06:39:06.765Z,65.47
2018-07-08T06:40:06.777Z,65.53
2018-07-08T06:41:06.790Z,65.56
2018-07-08T06:42:06.814Z,65.43
2018-07-08T06:43:06.848Z,65.47
2018-07-08T06:44:06.865Z,65.34
2018-07-08T06:45:06.878Z,65.56
2018-07-08T06:46:06.903Z,65.37
2018-07-08T06:47:06.950Z,65.66
2018-07-08T06:48:06.948Z,65.37
2018-07-08T06:49:06.959Z,65.66
2018-07-08T06:50:06.994Z,65.66
2018-07-08T06:51:07.016Z,65.66
2018-07-08T06:52:07.129Z,65.75
2018-07-08T06:53:07.070Z,65.66
2018-07-08T06:54:07.081Z,65.72
2018-07-08T06:55:07.096Z,65.37
2018-07-08T06:56:07.114Z,65.85
2018-07-08T06:57:07.132Z,65.66
2018-07-08T06:58:07.164Z,65.82
2018-07-08T06:59:07.179Z,65.47
2018-07-08T07:00:07.210Z,65.37
2018-07-08T07:01:07.235Z,65.66
2018-07-08T07:02:07.238Z,65.53
2018-07-08T07:03:07.267Z,65.37
2018-07-08T07:04:07.286Z,65.47
2018-07-08T07:05:07.310Z,65.27
2018-07-08T07:06:07.345Z,65.37
2018-07-08T07:07:07.358Z,65.63
2018-07-08T07:08:07.390Z,65.56
2018-07-08T07:09:07.397Z,65.24
2018-07-08T07:10:07.413Z,65.72
2018-07-08T07:11:07.466Z,65.82
2018-07-08T07:12:07.460Z,65.75
2018-07-08T07:13:07.495Z,65.37
2018-07-08T07:14:07.744Z,65.43
2018-07-08T07:15:07.531Z,65.53
2018-07-08T07:16:07.552Z,65.72
2018-07-08T07:17:07.576Z,66.11
2018-07-08T07:18:07.623Z,66.11
2018-07-08T07:19:07.617Z,65.92
2018-07-08T07:20:07.715Z,65.92
2018-07-08T07:21:07.656Z,66.11
2018-07-08T07:22:07.682Z,65.92
2018-07-08T07:23:07.758Z,66.11
2018-07-08T07:24:07.723Z,66.11
2018-07-08T07:25:07.736Z,66.02
2018-07-08T07:26:07.766Z,66.02
2018-07-08T07:27:07.782Z,66.02
2018-07-08T07:28:07.811Z,65.95
2018-07-08T07:29:07.817Z,66.02
2018-07-08T07:30:07.845Z,65.92
2018-07-08T07:31:07.867Z,65.82
2018-07-08T07:32:07.912Z,66.20
2018-07-08T07:33:07.911Z,66.11
2018-07-08T07:34:07.928Z,66.20
2018-07-08T07:35:07.967Z,66.20
2018-07-08T07:36:07.984Z,66.02
2018-07-08T07:37:08.100Z,66.02
2018-07-08T07:38:08.020Z,66.11
2018-07-08T07:39:08.044Z,66.20
2018-07-08T07:40:08.060Z,65.92
2018-07-08T07:41:08.079Z,66.60
2018-07-08T07:42:08.132Z,66.69
2018-07-08T07:43:08.117Z,66.60
2018-07-08T07:44:08.143Z,66.50
2018-07-08T07:45:08.165Z,66.79
2018-07-08T07:46:08.214Z,66.69
2018-07-08T07:47:08.203Z,66.40
2018-07-08T07:48:08.233Z,66.40
2018-07-08T07:49:08.242Z,66.40
2018-07-08T07:50:08.300Z,66.40
2018-07-08T07:51:08.335Z,66.20
2018-07-08T07:52:08.320Z,66.20
2018-07-08T07:53:08.334Z,66.40
2018-07-08T07:54:08.356Z,66.40
2018-07-08T07:55:08.384Z,66.40
2018-07-08T07:56:08.407Z,66.20
2018-07-08T07:57:08.421Z,66.69
2018-07-08T07:58:08.438Z,66.72
2018-07-08T07:59:08.491Z,66.50
2018-07-08T08:00:08.495Z,66.72
2018-07-08T08:01:08.511Z,66.69
2018-07-08T08:02:08.534Z,66.34
2018-07-08T08:03:08.552Z,66.02
2018-07-08T08:04:08.576Z,65.95
2018-07-08T08:05:08.615Z,66.20
2018-07-08T08:06:08.630Z,65.53
2018-07-08T08:07:08.639Z,65.24
2018-07-08T08:08:08.661Z,65.63
2018-07-08T08:09:08.682Z,65.66
2018-07-08T08:10:08.711Z,65.43
2018-07-08T08:11:08.724Z,65.53
2018-07-08T08:12:08.745Z,65.72
2018-07-08T08:13:08.774Z,65.47
2018-07-08T08:14:08.786Z,65.63
2018-07-08T08:15:08.817Z,65.75
2018-07-08T08:16:08.857Z,65.37
2018-07-08T08:17:08.859Z,65.08
2018-07-08T08:18:08.886Z,65.17
2018-07-08T08:19:08.897Z,63.69
2018-07-08T08:20:08.923Z,62.91
2018-07-08T08:21:08.958Z,60.10
2018-07-08T08:22:08.978Z,57.19
2018-07-08T08:23:08.978Z,55.35
2018-07-08T08:24:09.007Z,53.89
2018-07-08T08:25:09.032Z,54.19
2018-07-08T08:26:09.051Z,53.41
2018-07-08T08:27:09.073Z,52.73
2018-07-08T08:28:09.090Z,51.86
2018-07-08T08:29:09.113Z,51.47
2018-07-08T08:30:09.134Z,50.70
2018-07-08T08:31:09.166Z,50.70
2018-07-08T08:32:09.176Z,49.73
2018-07-08T08:33:09.193Z,49.44
2018-07-08T08:34:09.217Z,49.15
2018-07-08T08:35:09.243Z,49.24
2018-07-08T08:36:09.260Z,48.37
2018-07-08T08:37:09.319Z,48.47
2018-07-08T08:38:09.308Z,48.57
2018-07-08T08:39:09.320Z,48.08
2018-07-08T08:40:09.348Z,48.18
2018-07-08T08:41:09.365Z,47.09
2018-07-08T08:42:09.389Z,47.11
2018-07-08T08:43:09.406Z,46.51
2018-07-08T08:44:09.432Z,46.60
2018-07-08T08:45:09.457Z,46.31
2018-07-08T08:46:09.478Z,46.22
2018-07-08T08:47:09.493Z,46.22
2018-07-08T08:48:09.508Z,46.41
2018-07-08T08:49:09.535Z,46.22
2018-07-08T08:50:09.562Z,46.22
2018-07-08T08:51:09.569Z,46.31
2018-07-08T08:52:09.612Z,45.44
2018-07-08T08:53:09.620Z,45.54
2018-07-08T08:54:09.646Z,45.92
2018-07-08T08:55:09.664Z,46.02
2018-07-08T08:56:09.685Z,44.86
2018-07-08T08:57:09.709Z,45.44
2018-07-08T08:58:09.734Z,44.57
2018-07-08T08:59:09.745Z,44.57
2018-07-08T09:00:09.771Z,44.67
2018-07-08T09:01:09.794Z,45.05
2018-07-08T09:02:09.815Z,45.44
2018-07-08T09:03:09.832Z,45.54
2018-07-08T09:04:09.856Z,45.64
2018-07-08T09:05:09.876Z,45.44
2018-07-08T09:06:09.899Z,46.51
2018-07-08T09:07:09.922Z,45.54
2018-07-08T09:08:09.944Z,45.05
2018-07-08T09:09:09.964Z,45.54
2018-07-08T09:10:09.987Z,44.37
2018-07-08T09:11:10.008Z,45.34
2018-07-08T09:12:10.042Z,46.41
2018-07-08T09:13:10.047Z,47.67
2018-07-08T09:14:10.065Z,50.77
2018-07-08T09:15:10.093Z,52.80
2018-07-08T09:16:10.109Z,54.35
2018-07-08T09:17:10.129Z,56.00
2018-07-08T09:18:10.151Z,55.42
2018-07-08T09:19:10.173Z,55.90
2018-07-08T09:20:10.193Z,56.29
2018-07-08T09:21:10.210Z,55.81
2018-07-08T09:22:10.230Z,55.62
2018-07-08T09:23:10.255Z,55.71
2018-07-08T09:24:10.276Z,55.71
2018-07-08T09:25:10.300Z,55.32
2018-07-08T09:26:10.321Z,55.32
2018-07-08T09:27:10.340Z,55.42
2018-07-08T09:28:10.364Z,54.84
2018-07-08T09:29:10.399Z,54.84
2018-07-08T09:30:10.395Z,54.35
2018-07-08T09:31:10.422Z,54.09
2018-07-08T09:32:10.449Z,54.35
2018-07-08T09:33:10.467Z,54.06
2018-07-08T09:34:10.499Z,54.35
2018-07-08T09:35:10.511Z,54.26
2018-07-08T09:36:10.537Z,54.45
2018-07-08T09:37:10.548Z,54.35
2018-07-08T09:38:10.569Z,54.26
2018-07-08T09:39:10.744Z,54.09
2018-07-08T09:40:10.627Z,54.58
2018-07-08T09:41:10.635Z,54.58
2018-07-08T09:42:10.665Z,54.48
2018-07-08T09:43:10.687Z,54.28
2018-07-08T09:44:10.696Z,54.38
2018-07-08T09:45:10.730Z,54.48
2018-07-08T09:46:10.745Z,54.58
2018-07-08T09:47:10.762Z,54.38
2018-07-08T09:48:10.792Z,53.89
2018-07-08T09:49:10.808Z,54.09
2018-07-08T09:50:10.867Z,54.58
2018-07-08T09:51:10.845Z,54.58
2018-07-08T09:52:10.867Z,54.48
2018-07-08T09:53:10.890Z,54.09
2018-07-08T09:54:10.905Z,54.67
2018-07-08T09:55:10.930Z,54.38
2018-07-08T09:56:11.020Z,54.19
2018-07-08T09:57:11.023Z,54.48
2018-07-08T09:58:11.002Z,54.19
2018-07-08T09:59:11.046Z,54.48
2018-07-08T10:00:11.034Z,54.09
2018-07-08T10:01:11.063Z,54.38
2018-07-08T10:02:11.082Z,54.09
2018-07-08T10:03:11.102Z,54.58
2018-07-08T10:04:11.122Z,54.48
2018-07-08T10:05:11.159Z,54.28
2018-07-08T10:06:11.162Z,54.58
2018-07-08T10:07:11.182Z,55.06
2018-07-08T10:08:11.211Z,55.26
2018-07-08T10:09:11.231Z,54.96
2018-07-08T10:10:11.257Z,55.06
2018-07-08T10:11:11.347Z,54.86
2018-07-08T10:12:11.295Z,54.48
2018-07-08T10:13:11.324Z,55.16
2018-07-08T10:14:11.347Z,54.86
2018-07-08T10:15:11.353Z,55.26
2018-07-08T10:16:11.369Z,55.06
2018-07-08T10:17:11.398Z,55.35
2018-07-08T10:18:11.422Z,55.44
2018-07-08T10:19:11.446Z,55.44
2018-07-08T10:20:11.510Z,55.44
2018-07-08T10:21:11.480Z,55.26
2018-07-08T10:22:11.505Z,55.26
2018-07-08T10:23:11.529Z,55.16
2018-07-08T10:24:11.552Z,55.06
2018-07-08T10:25:11.579Z,55.06
2018-07-08T10:26:11.587Z,55.06
2018-07-08T10:27:11.610Z,55.16
2018-07-08T10:28:11.638Z,55.44
2018-07-08T10:29:11.659Z,55.83
2018-07-08T10:30:11.670Z,55.74
2018-07-08T10:31:11.708Z,55.83
2018-07-08T10:32:11.774Z,55.74
2018-07-08T10:33:11.729Z,55.54
2018-07-08T10:34:11.760Z,55.54
2018-07-08T10:35:11.788Z,55.83
2018-07-08T10:36:11.816Z,55.93
2018-07-08T10:37:11.821Z,56.03
2018-07-08T10:38:11.862Z,56.13
2018-07-08T10:39:11.866Z,55.64
2018-07-08T10:40:11.882Z,55.74
2018-07-08T10:41:11.904Z,56.41
2018-07-08T10:42:11.929Z,56.13
2018-07-08T10:43:11.955Z,56.41
2018-07-08T10:44:11.973Z,56.23
2018-07-08T10:45:11.994Z,56.23
2018-07-08T10:46:12.015Z,56.41
2018-07-08T10:47:12.035Z,56.03
2018-07-08T10:48:12.061Z,56.32
2018-07-08T10:49:12.072Z,56.51
2018-07-08T10:50:12.141Z,56.41
2018-07-08T10:51:12.114Z,55.93
2018-07-08T10:52:12.140Z,56.03
2018-07-08T10:53:12.160Z,56.32
2018-07-08T10:54:12.188Z,56.23
2018-07-08T10:55:12.204Z,56.03
2018-07-08T10:56:12.224Z,56.13
2018-07-08T10:57:12.245Z,56.51
2018-07-08T10:58:12.267Z,56.41
2018-07-08T10:59:12.291Z,56.03
2018-07-08T11:00:12.311Z,56.51
2018-07-08T11:01:12.333Z,56.41
2018-07-08T11:02:12.351Z,56.23
2018-07-08T11:03:12.378Z,56.61
2018-07-08T11:04:12.395Z,56.81
2018-07-08T11:05:12.416Z,56.41
2018-07-08T11:06:12.435Z,56.32
2018-07-08T11:07:12.463Z,56.23
2018-07-08T11:08:12.478Z,56.51
2018-07-08T11:09:12.515Z,56.32
2018-07-08T11:10:12.520Z,56.81
2018-07-08T11:11:12.564Z,55.93
2018-07-08T11:12:12.592Z,56.81
2018-07-08T11:13:12.587Z,56.90
2018-07-08T11:14:12.608Z,56.51
2018-07-08T11:15:12.619Z,56.61
2018-07-08T11:16:12.659Z,56.71
2018-07-08T11:17:12.679Z,57.19
2018-07-08T11:18:12.699Z,56.51
2018-07-08T11:19:12.711Z,57.48
2018-07-08T11:20:12.731Z,56.51
2018-07-08T11:21:12.756Z,57.39
2018-07-08T11:22:12.779Z,56.71
2018-07-08T11:23:12.797Z,56.71
2018-07-08T11:24:12.821Z,56.81
2018-07-08T11:25:12.841Z,56.81
2018-07-08T11:26:12.857Z,56.90
2018-07-08T11:27:12.883Z,57.39
2018-07-08T11:28:12.909Z,57.39
2018-07-08T11:29:12.926Z,57.39
2018-07-08T11:30:12.949Z,57.29
2018-07-08T11:31:12.970Z,57.39
2018-07-08T11:32:12.992Z,57.09
2018-07-08T11:33:13.003Z,57.09
2018-07-08T11:34:13.029Z,57.19
2018-07-08T11:35:13.052Z,56.71
2018-07-08T11:36:13.071Z,57.87
2018-07-08T11:37:13.095Z,56.81
2018-07-08T11:38:13.115Z,56.90
2018-07-08T11:39:13.135Z,57.09
2018-07-08T11:40:13.156Z,56.90
2018-07-08T11:41:13.177Z,57.58
2018-07-08T11:42:13.199Z,56.90
2018-07-08T11:43:13.219Z,56.90
2018-07-08T11:44:13.249Z,57.68
2018-07-08T11:45:13.263Z,57.78
2018-07-08T11:46:13.284Z,57.58
2018-07-08T11:47:13.311Z,57.78
2018-07-08T11:48:13.337Z,57.58
2018-07-08T11:49:13.342Z,57.58
2018-07-08T11:50:13.367Z,57.48
2018-07-08T11:51:13.391Z,57.48
2018-07-08T11:52:13.414Z,57.58
2018-07-08T11:53:13.432Z,57.48
2018-07-08T11:54:13.458Z,57.48
2018-07-08T11:55:13.474Z,57.39
2018-07-08T11:56:13.496Z,57.29
2018-07-08T11:57:13.518Z,57.68
2018-07-08T11:58:13.560Z,57.78
2018-07-08T11:59:13.561Z,57.58
2018-07-08T12:00:13.578Z,57.39
2018-07-08T12:01:13.603Z,57.39
2018-07-08T12:02:13.642Z,57.19
2018-07-08T12:03:13.643Z,57.58
2018-07-08T12:04:13.680Z,57.39
2018-07-08T12:05:13.688Z,57.78
2018-07-08T12:06:13.708Z,57.39
2018-07-08T12:07:13.731Z,57.87
2018-07-08T12:08:13.747Z,57.87
2018-07-08T12:09:13.772Z,57.87
2018-07-08T12:10:13.789Z,57.87
2018-07-08T12:11:13.815Z,57.97
2018-07-08T12:12:13.838Z,57.97
2018-07-08T12:13:13.858Z,57.87
2018-07-08T12:14:13.880Z,57.87
2018-07-08T12:15:13.920Z,57.97
2018-07-08T12:16:13.930Z,57.87
2018-07-08T12:17:13.938Z,58.06
2018-07-08T12:18:13.966Z,57.68
2018-07-08T12:19:13.992Z,57.78
2018-07-08T12:20:14.065Z,58.55
2018-07-08T12:21:14.083Z,58.06
2018-07-08T12:22:14.048Z,58.16
2018-07-08T12:23:14.083Z,58.26
2018-07-08T12:24:14.133Z,58.16
2018-07-08T12:25:14.111Z,58.36
2018-07-08T12:26:14.131Z,57.97
2018-07-08T12:27:14.155Z,58.16
2018-07-08T12:28:14.212Z,58.16
2018-07-08T12:29:14.192Z,57.97
2018-07-08T12:30:14.222Z,58.26
2018-07-08T12:31:14.237Z,57.97
2018-07-08T12:32:14.261Z,57.78
2018-07-08T12:33:14.282Z,57.97
2018-07-08T12:34:14.300Z,58.06
2018-07-08T12:35:14.340Z,57.87
2018-07-08T12:36:14.339Z,57.87
2018-07-08T12:37:14.367Z,57.87
2018-07-08T12:38:14.392Z,57.87
2018-07-08T12:39:14.400Z,57.87
2018-07-08T12:40:14.427Z,57.97
2018-07-08T12:41:14.449Z,57.97
2018-07-08T12:42:14.470Z,57.87
2018-07-08T12:43:14.494Z,57.97
2018-07-08T12:44:14.627Z,58.36
2018-07-08T12:45:14.531Z,57.78
2018-07-08T12:46:14.549Z,57.78
2018-07-08T12:47:14.577Z,57.87
2018-07-08T12:48:14.601Z,58.55
2018-07-08T12:49:14.656Z,58.26
2018-07-08T12:50:14.643Z,57.97
2018-07-08T12:51:14.656Z,58.26
2018-07-08T12:52:14.683Z,58.26
2018-07-08T12:53:14.702Z,58.45